sensor_id;sensor_type;location;lat;lon;timestamp;temperature;humidity
22522;DHT22;11427;51.062;17.044;2022-12-24T00:08:17;8.30;99.90
22522;DHT22;11427;51.062;17.044;2022-12-24T00:23:19;8.30;99.90
22522;DHT22;11427;51.062;17.044;2022-12-24T00:38:21;8.30;99.90
22522;DHT22;11427;51.062;17.044;2022-12-24T00:53:28;8.30;99.90
22522;DHT22;11427;51.062;17.044;2022-12-24T01:08:40;8.30;99.90
22522;DHT22;11427;51.062;17.044;2022-12-24T01:23:43;8.30;99.90
22522;DHT22;11427;51.062;17.044;2022-12-24T01:38:45;8.40;99.90
22522;DHT22;11427;51.062;17.044;2022-12-24T01:53:52;8.20;99.90
22522;DHT22;11427;51.062;17.044;2022-12-24T02:08:56;8.00;99.90
22522;DHT22;11427;51.062;17.044;2022-12-24T02:39:56;8.00;99.90
22522;DHT22;11427;51.062;17.044;2022-12-24T03:25:44;8.10;99.90
22522;DHT22;11427;51.062;17.044;2022-12-24T03:40:46;8.20;99.90
22522;DHT22;11427;51.062;17.044;2022-12-24T03:55:48;8.20;99.90
22522;DHT22;11427;51.062;17.044;2022-12-24T04:10:50;8.40;99.90
22522;DHT22;11427;51.062;17.044;2022-12-24T04:25:52;8.90;99.90
22522;DHT22;11427;51.062;17.044;2022-12-24T04:41:05;9.30;99.90
22522;DHT22;11427;51.062;17.044;2022-12-24T04:56:19;9.30;99.90
22522;DHT22;11427;51.062;17.044;2022-12-24T05:11:21;9.40;99.90
22522;DHT22;11427;51.062;17.044;2022-12-24T05:26:31;9.50;99.90
22522;DHT22;11427;51.062;17.044;2022-12-24T05:41:33;9.60;99.90
22522;DHT22;11427;51.062;17.044;2022-12-24T05:56:35;9.70;99.90
22522;DHT22;11427;51.062;17.044;2022-12-24T06:11:37;9.80;99.90
22522;DHT22;11427;51.062;17.044;2022-12-24T06:26:39;9.90;99.90
22522;DHT22;11427;51.062;17.044;2022-12-24T06:41:42;10.00;99.90
22522;DHT22;11427;51.062;17.044;2022-12-24T06:56:44;10.10;99.90
22522;DHT22;11427;51.062;17.044;2022-12-24T07:11:46;10.00;99.90
22522;DHT22;11427;51.062;17.044;2022-12-24T07:26:47;9.80;99.90
22522;DHT22;11427;51.062;17.044;2022-12-24T07:41:49;9.70;99.90
22522;DHT22;11427;51.062;17.044;2022-12-24T07:56:52;9.50;99.90
22522;DHT22;11427;51.062;17.044;2022-12-24T08:11:54;9.60;99.90
22522;DHT22;11427;51.062;17.044;2022-12-24T08:26:56;9.70;99.90
22522;DHT22;11427;51.062;17.044;2022-12-24T08:41:58;9.40;99.90
22522;DHT22;11427;51.062;17.044;2022-12-24T08:57:00;9.20;99.90
22522;DHT22;11427;51.062;17.044;2022-12-24T09:12:04;9.20;99.90
22522;DHT22;11427;51.062;17.044;2022-12-24T09:27:06;9.10;99.90
22522;DHT22;11427;51.062;17.044;2022-12-24T09:57:27;9.10;99.90
22522;DHT22;11427;51.062;17.044;2022-12-24T10:28:26;9.10;99.90
22522;DHT22;11427;51.062;17.044;2022-12-24T10:43:30;9.10;99.90
22522;DHT22;11427;51.062;17.044;2022-12-24T10:58:32;9.00;99.90
22522;DHT22;11427;51.062;17.044;2022-12-24T11:13:37;8.90;99.90
22522;DHT22;11427;51.062;17.044;2022-12-24T11:28:41;9.00;99.90
22522;DHT22;11427;51.062;17.044;2022-12-24T11:43:45;9.00;99.90
22522;DHT22;11427;51.062;17.044;2022-12-24T11:58:55;9.10;99.90
22522;DHT22;11427;51.062;17.044;2022-12-24T12:14:00;9.20;99.90
22522;DHT22;11427;51.062;17.044;2022-12-24T12:29:32;9.40;99.90
22522;DHT22;11427;51.062;17.044;2022-12-24T13:45:41;9.60;99.90
22522;DHT22;11427;51.062;17.044;2022-12-24T14:00:59;9.70;99.90
22522;DHT22;11427;51.062;17.044;2022-12-24T14:31:18;9.70;99.90
22522;DHT22;11427;51.062;17.044;2022-12-24T15:01:39;9.30;99.90
22522;DHT22;11427;51.062;17.044;2022-12-24T15:16:47;9.00;99.90
22522;DHT22;11427;51.062;17.044;2022-12-24T15:31:52;8.60;99.90
22522;DHT22;11427;51.062;17.044;2022-12-24T15:46:59;8.70;99.90
22522;DHT22;11427;51.062;17.044;2022-12-24T16:02:35;8.90;99.90
22522;DHT22;11427;51.062;17.044;2022-12-24T16:17:37;9.00;99.90
22522;DHT22;11427;51.062;17.044;2022-12-24T16:32:39;9.10;99.90
22522;DHT22;11427;51.062;17.044;2022-12-24T16:47:42;9.10;99.90
22522;DHT22;11427;51.062;17.044;2022-12-24T17:02:45;9.00;99.90
22522;DHT22;11427;51.062;17.044;2022-12-24T17:17:48;9.10;99.90
22522;DHT22;11427;51.062;17.044;2022-12-24T17:32:49;9.10;99.90
22522;DHT22;11427;51.062;17.044;2022-12-24T17:47:52;9.10;99.90
22522;DHT22;11427;51.062;17.044;2022-12-24T18:02:55;9.10;99.90
22522;DHT22;11427;51.062;17.044;2022-12-24T18:17:57;9.10;99.90
22522;DHT22;11427;51.062;17.044;2022-12-24T18:33:00;9.10;99.90
22522;DHT22;11427;51.062;17.044;2022-12-24T18:48:02;8.90;99.90
22522;DHT22;11427;51.062;17.044;2022-12-24T19:03:04;8.90;99.90
22522;DHT22;11427;51.062;17.044;2022-12-24T19:18:06;8.90;99.90
22522;DHT22;11427;51.062;17.044;2022-12-24T19:33:08;8.90;99.90
22522;DHT22;11427;51.062;17.044;2022-12-24T19:48:10;8.60;99.90
22522;DHT22;11427;51.062;17.044;2022-12-24T20:03:12;8.70;99.90
22522;DHT22;11427;51.062;17.044;2022-12-24T20:18:14;8.60;99.90
22522;DHT22;11427;51.062;17.044;2022-12-24T20:33:17;8.40;99.90
22522;DHT22;11427;51.062;17.044;2022-12-24T20:48:19;8.20;99.90
22522;DHT22;11427;51.062;17.044;2022-12-24T21:03:21;8.10;99.90
22522;DHT22;11427;51.062;17.044;2022-12-24T21:18:23;8.20;99.90
22522;DHT22;11427;51.062;17.044;2022-12-24T21:33:25;8.20;99.90
22522;DHT22;11427;51.062;17.044;2022-12-24T21:48:27;8.10;99.90
22522;DHT22;11427;51.062;17.044;2022-12-24T22:03:48;7.90;99.90
22522;DHT22;11427;51.062;17.044;2022-12-24T22:18:50;8.00;99.90
22522;DHT22;11427;51.062;17.044;2022-12-24T22:33:53;8.00;99.90
22522;DHT22;11427;51.062;17.044;2022-12-24T22:48:55;8.00;99.90
22522;DHT22;11427;51.062;17.044;2022-12-24T23:03:57;7.80;99.90
22522;DHT22;11427;51.062;17.044;2022-12-24T23:19:01;7.80;99.90
22522;DHT22;11427;51.062;17.044;2022-12-24T23:34:03;7.70;99.90
22522;DHT22;11427;51.062;17.044;2022-12-24T23:49:05;7.60;99.90
